sensor_id;sensor_type;location;lat;lon;timestamp;P1;durP1;ratioP1;P2;durP2;ratioP2
6755;SDS011;3415;51.148;7.014;2023-06-01T00:01:56;2.20;;;1.50;;
6755;SDS011;3415;51.148;7.014;2023-06-01T00:04:23;3.30;;;1.73;;
6755;SDS011;3415;51.148;7.014;2023-06-01T00:06:50;3.30;;;2.13;;
6755;SDS011;3415;51.148;7.014;2023-06-01T00:09:17;2.43;;;1.83;;
6755;SDS011;3415;51.148;7.014;2023-06-01T00:11:44;2.13;;;1.80;;
6755;SDS011;3415;51.148;7.014;2023-06-01T00:14:12;2.30;;;2.03;;
6755;SDS011;3415;51.148;7.014;2023-06-01T00:16:38;2.97;;;1.60;;
6755;SDS011;3415;51.148;7.014;2023-06-01T00:19:05;10.43;;;2.03;;
6755;SDS011;3415;51.148;7.014;2023-06-01T00:21:32;3.03;;;1.90;;
6755;SDS011;3415;51.148;7.014;2023-06-01T00:24:00;4.90;;;2.50;;
6755;SDS011;3415;51.148;7.014;2023-06-01T00:26:27;3.07;;;1.60;;
6755;SDS011;3415;51.148;7.014;2023-06-01T00:28:56;2.40;;;1.67;;
6755;SDS011;3415;51.148;7.014;2023-06-01T00:31:25;3.27;;;2.00;;
6755;SDS011;3415;51.148;7.014;2023-06-01T00:33:51;3.70;;;1.80;;
6755;SDS011;3415;51.148;7.014;2023-06-01T00:36:18;2.27;;;2.10;;
6755;SDS011;3415;51.148;7.014;2023-06-01T00:38:45;1.70;;;1.50;;
6755;SDS011;3415;51.148;7.014;2023-06-01T00:41:12;2.40;;;2.20;;
6755;SDS011;3415;51.148;7.014;2023-06-01T00:43:39;7.47;;;2.33;;
6755;SDS011;3415;51.148;7.014;2023-06-01T00:46:06;2.30;;;2.10;;
6755;SDS011;3415;51.148;7.014;2023-06-01T00:48:34;3.97;;;2.00;;
6755;SDS011;3415;51.148;7.014;2023-06-01T00:51:01;3.33;;;2.30;;
6755;SDS011;3415;51.148;7.014;2023-06-01T00:53:28;2.60;;;2.03;;
6755;SDS011;3415;51.148;7.014;2023-06-01T00:55:56;2.00;;;1.87;;
6755;SDS011;3415;51.148;7.014;2023-06-01T00:58:22;2.80;;;1.67;;
6755;SDS011;3415;51.148;7.014;2023-06-01T01:00:49;2.50;;;1.73;;
6755;SDS011;3415;51.148;7.014;2023-06-01T01:03:18;3.87;;;1.97;;
6755;SDS011;3415;51.148;7.014;2023-06-01T01:05:47;2.10;;;1.80;;
6755;SDS011;3415;51.148;7.014;2023-06-01T01:08:18;3.70;;;2.80;;
6755;SDS011;3415;51.148;7.014;2023-06-01T01:10:52;2.13;;;1.83;;
6755;SDS011;3415;51.148;7.014;2023-06-01T01:13:26;2.03;;;1.77;;
6755;SDS011;3415;51.148;7.014;2023-06-01T01:16:00;7.13;;;2.73;;
6755;SDS011;3415;51.148;7.014;2023-06-01T01:18:33;4.60;;;2.10;;
6755;SDS011;3415;51.148;7.014;2023-06-01T01:21:04;2.63;;;2.07;;
6755;SDS011;3415;51.148;7.014;2023-06-01T01:26:51;2.77;;;2.00;;
6755;SDS011;3415;51.148;7.014;2023-06-01T01:29:24;5.30;;;2.43;;
6755;SDS011;3415;51.148;7.014;2023-06-01T01:31:54;3.33;;;2.20;;
6755;SDS011;3415;51.148;7.014;2023-06-01T01:34:22;2.93;;;2.07;;
6755;SDS011;3415;51.148;7.014;2023-06-01T01:36:52;8.60;;;2.30;;
6755;SDS011;3415;51.148;7.014;2023-06-01T01:39:19;5.40;;;2.40;;
6755;SDS011;3415;51.148;7.014;2023-06-01T01:41:46;3.90;;;1.93;;
6755;SDS011;3415;51.148;7.014;2023-06-01T01:44:12;2.43;;;1.70;;
6755;SDS011;3415;51.148;7.014;2023-06-01T01:46:44;7.53;;;2.57;;
6755;SDS011;3415;51.148;7.014;2023-06-01T01:49:19;6.00;;;2.80;;
6755;SDS011;3415;51.148;7.014;2023-06-01T01:51:54;4.20;;;2.33;;
6755;SDS011;3415;51.148;7.014;2023-06-01T01:54:25;3.70;;;2.13;;
6755;SDS011;3415;51.148;7.014;2023-06-01T01:56:55;5.67;;;2.57;;
6755;SDS011;3415;51.148;7.014;2023-06-01T01:59:24;5.87;;;2.70;;
6755;SDS011;3415;51.148;7.014;2023-06-01T02:01:54;4.40;;;2.60;;
6755;SDS011;3415;51.148;7.014;2023-06-01T02:04:21;3.90;;;2.53;;
6755;SDS011;3415;51.148;7.014;2023-06-01T02:06:48;3.13;;;2.40;;
6755;SDS011;3415;51.148;7.014;2023-06-01T02:09:15;3.00;;;2.23;;
6755;SDS011;3415;51.148;7.014;2023-06-01T02:11:42;3.43;;;2.67;;
6755;SDS011;3415;51.148;7.014;2023-06-01T02:14:09;5.30;;;2.63;;
6755;SDS011;3415;51.148;7.014;2023-06-01T02:16:36;3.23;;;2.23;;
6755;SDS011;3415;51.148;7.014;2023-06-01T02:19:04;8.90;;;2.33;;
6755;SDS011;3415;51.148;7.014;2023-06-01T02:21:35;2.27;;;2.07;;
6755;SDS011;3415;51.148;7.014;2023-06-01T02:24:02;4.03;;;2.37;;
6755;SDS011;3415;51.148;7.014;2023-06-01T02:26:31;8.80;;;2.57;;
6755;SDS011;3415;51.148;7.014;2023-06-01T02:28:59;5.67;;;2.80;;
6755;SDS011;3415;51.148;7.014;2023-06-01T02:31:27;6.83;;;2.10;;
6755;SDS011;3415;51.148;7.014;2023-06-01T02:33:54;6.30;;;2.07;;
6755;SDS011;3415;51.148;7.014;2023-06-01T02:36:22;4.07;;;2.60;;
6755;SDS011;3415;51.148;7.014;2023-06-01T02:38:50;3.60;;;2.30;;
6755;SDS011;3415;51.148;7.014;2023-06-01T02:41:17;4.10;;;2.10;;
6755;SDS011;3415;51.148;7.014;2023-06-01T02:43:43;2.70;;;2.00;;
6755;SDS011;3415;51.148;7.014;2023-06-01T02:46:10;7.80;;;2.50;;
6755;SDS011;3415;51.148;7.014;2023-06-01T02:48:37;7.93;;;2.33;;
6755;SDS011;3415;51.148;7.014;2023-06-01T02:51:04;3.07;;;2.33;;
6755;SDS011;3415;51.148;7.014;2023-06-01T02:53:32;1.80;;;1.70;;
6755;SDS011;3415;51.148;7.014;2023-06-01T02:55:59;3.00;;;1.93;;
6755;SDS011;3415;51.148;7.014;2023-06-01T02:58:26;3.80;;;2.07;;
6755;SDS011;3415;51.148;7.014;2023-06-01T03:00:54;5.10;;;2.37;;
6755;SDS011;3415;51.148;7.014;2023-06-01T03:03:23;7.30;;;2.40;;
6755;SDS011;3415;51.148;7.014;2023-06-01T03:05:49;5.07;;;2.53;;
6755;SDS011;3415;51.148;7.014;2023-06-01T03:08:16;5.00;;;2.80;;
6755;SDS011;3415;51.148;7.014;2023-06-01T03:10:45;2.57;;;2.30;;
6755;SDS011;3415;51.148;7.014;2023-06-01T03:13:12;2.90;;;2.47;;
6755;SDS011;3415;51.148;7.014;2023-06-01T03:15:39;4.67;;;2.80;;
6755;SDS011;3415;51.148;7.014;2023-06-01T03:18:05;3.37;;;2.43;;
6755;SDS011;3415;51.148;7.014;2023-06-01T03:20:33;2.43;;;1.97;;
6755;SDS011;3415;51.148;7.014;2023-06-01T03:23:00;3.57;;;2.17;;
6755;SDS011;3415;51.148;7.014;2023-06-01T03:25:27;4.40;;;1.80;;
6755;SDS011;3415;51.148;7.014;2023-06-01T03:27:55;3.57;;;2.20;;
6755;SDS011;3415;51.148;7.014;2023-06-01T03:30:22;11.67;;;2.57;;
6755;SDS011;3415;51.148;7.014;2023-06-01T03:32:49;5.30;;;2.90;;
6755;SDS011;3415;51.148;7.014;2023-06-01T03:35:16;3.80;;;2.57;;
6755;SDS011;3415;51.148;7.014;2023-06-01T03:37:43;7.00;;;3.23;;
6755;SDS011;3415;51.148;7.014;2023-06-01T03:40:11;4.50;;;2.90;;
6755;SDS011;3415;51.148;7.014;2023-06-01T03:42:39;7.07;;;3.80;;
6755;SDS011;3415;51.148;7.014;2023-06-01T03:45:09;7.80;;;2.93;;
6755;SDS011;3415;51.148;7.014;2023-06-01T03:47:37;4.57;;;2.83;;
6755;SDS011;3415;51.148;7.014;2023-06-01T03:50:05;15.53;;;3.20;;
6755;SDS011;3415;51.148;7.014;2023-06-01T03:52:33;4.60;;;3.20;;
6755;SDS011;3415;51.148;7.014;2023-06-01T03:55:02;4.70;;;3.27;;
6755;SDS011;3415;51.148;7.014;2023-06-01T03:57:33;5.50;;;2.83;;
6755;SDS011;3415;51.148;7.014;2023-06-01T04:00:00;7.53;;;4.70;;
6755;SDS011;3415;51.148;7.014;2023-06-01T04:02:44;9.70;;;5.93;;
6755;SDS011;3415;51.148;7.014;2023-06-01T04:05:14;11.87;;;5.90;;
6755;SDS011;3415;51.148;7.014;2023-06-01T04:07:42;10.70;;;5.77;;
6755;SDS011;3415;51.148;7.014;2023-06-01T04:10:10;9.10;;;5.63;;
6755;SDS011;3415;51.148;7.014;2023-06-01T04:12:39;13.70;;;5.87;;
6755;SDS011;3415;51.148;7.014;2023-06-01T04:15:07;14.17;;;7.03;;
6755;SDS011;3415;51.148;7.014;2023-06-01T04:17:35;18.00;;;7.77;;
6755;SDS011;3415;51.148;7.014;2023-06-01T04:20:04;15.33;;;7.17;;
6755;SDS011;3415;51.148;7.014;2023-06-01T04:22:32;13.43;;;6.50;;
6755;SDS011;3415;51.148;7.014;2023-06-01T04:24:59;19.80;;;8.40;;
6755;SDS011;3415;51.148;7.014;2023-06-01T04:27:26;17.80;;;8.43;;
6755;SDS011;3415;51.148;7.014;2023-06-01T04:29:53;17.77;;;8.97;;
6755;SDS011;3415;51.148;7.014;2023-06-01T04:32:23;20.03;;;8.97;;
6755;SDS011;3415;51.148;7.014;2023-06-01T04:34:51;16.90;;;9.57;;
6755;SDS011;3415;51.148;7.014;2023-06-01T04:37:19;23.57;;;9.90;;
6755;SDS011;3415;51.148;7.014;2023-06-01T04:39:46;19.83;;;10.20;;
6755;SDS011;3415;51.148;7.014;2023-06-01T04:42:15;19.47;;;10.30;;
6755;SDS011;3415;51.148;7.014;2023-06-01T04:44:43;20.57;;;10.20;;
6755;SDS011;3415;51.148;7.014;2023-06-01T04:47:14;24.77;;;10.50;;
6755;SDS011;3415;51.148;7.014;2023-06-01T04:49:42;22.57;;;10.37;;
6755;SDS011;3415;51.148;7.014;2023-06-01T04:52:09;20.70;;;10.90;;
6755;SDS011;3415;51.148;7.014;2023-06-01T04:54:38;18.60;;;10.63;;
6755;SDS011;3415;51.148;7.014;2023-06-01T04:57:05;19.97;;;10.90;;
6755;SDS011;3415;51.148;7.014;2023-06-01T04:59:32;20.07;;;10.83;;
6755;SDS011;3415;51.148;7.014;2023-06-01T05:01:59;25.03;;;12.30;;
6755;SDS011;3415;51.148;7.014;2023-06-01T05:04:26;23.90;;;11.20;;
6755;SDS011;3415;51.148;7.014;2023-06-01T05:06:53;22.20;;;9.73;;
6755;SDS011;3415;51.148;7.014;2023-06-01T05:09:20;20.63;;;11.50;;
6755;SDS011;3415;51.148;7.014;2023-06-01T05:11:48;20.30;;;11.33;;
6755;SDS011;3415;51.148;7.014;2023-06-01T05:14:15;23.83;;;12.37;;
6755;SDS011;3415;51.148;7.014;2023-06-01T05:16:42;20.30;;;10.20;;
6755;SDS011;3415;51.148;7.014;2023-06-01T05:19:09;23.73;;;11.03;;
6755;SDS011;3415;51.148;7.014;2023-06-01T05:21:37;18.50;;;11.40;;
6755;SDS011;3415;51.148;7.014;2023-06-01T05:24:05;24.07;;;12.47;;
6755;SDS011;3415;51.148;7.014;2023-06-01T05:26:33;15.60;;;9.80;;
6755;SDS011;3415;51.148;7.014;2023-06-01T05:29:01;19.83;;;10.60;;
6755;SDS011;3415;51.148;7.014;2023-06-01T05:31:29;21.77;;;10.57;;
6755;SDS011;3415;51.148;7.014;2023-06-01T05:33:56;20.00;;;10.70;;
6755;SDS011;3415;51.148;7.014;2023-06-01T05:36:23;20.50;;;8.07;;
6755;SDS011;3415;51.148;7.014;2023-06-01T05:38:49;21.07;;;9.57;;
6755;SDS011;3415;51.148;7.014;2023-06-01T05:41:16;17.47;;;9.40;;
6755;SDS011;3415;51.148;7.014;2023-06-01T05:43:43;17.30;;;9.50;;
6755;SDS011;3415;51.148;7.014;2023-06-01T05:46:11;18.23;;;9.83;;
6755;SDS011;3415;51.148;7.014;2023-06-01T05:48:38;19.03;;;9.60;;
6755;SDS011;3415;51.148;7.014;2023-06-01T05:51:05;17.07;;;9.77;;
6755;SDS011;3415;51.148;7.014;2023-06-01T05:53:31;18.10;;;9.87;;
6755;SDS011;3415;51.148;7.014;2023-06-01T05:55:58;19.40;;;9.03;;
6755;SDS011;3415;51.148;7.014;2023-06-01T05:58:25;20.23;;;10.63;;
6755;SDS011;3415;51.148;7.014;2023-06-01T06:00:52;17.67;;;9.67;;
6755;SDS011;3415;51.148;7.014;2023-06-01T06:03:20;18.70;;;10.47;;
6755;SDS011;3415;51.148;7.014;2023-06-01T06:05:47;20.30;;;9.47;;
6755;SDS011;3415;51.148;7.014;2023-06-01T06:08:15;16.13;;;9.60;;
6755;SDS011;3415;51.148;7.014;2023-06-01T06:10:41;16.20;;;9.33;;
6755;SDS011;3415;51.148;7.014;2023-06-01T06:13:08;22.40;;;11.50;;
6755;SDS011;3415;51.148;7.014;2023-06-01T06:15:35;20.03;;;9.57;;
6755;SDS011;3415;51.148;7.014;2023-06-01T06:18:02;16.80;;;9.83;;
6755;SDS011;3415;51.148;7.014;2023-06-01T06:20:31;15.90;;;9.47;;
6755;SDS011;3415;51.148;7.014;2023-06-01T06:22:57;16.60;;;9.40;;
6755;SDS011;3415;51.148;7.014;2023-06-01T06:25:24;18.43;;;9.67;;
6755;SDS011;3415;51.148;7.014;2023-06-01T06:27:51;18.30;;;10.37;;
6755;SDS011;3415;51.148;7.014;2023-06-01T06:30:18;19.07;;;9.53;;
6755;SDS011;3415;51.148;7.014;2023-06-01T06:32:46;22.47;;;10.50;;
6755;SDS011;3415;51.148;7.014;2023-06-01T06:35:14;20.17;;;11.07;;
6755;SDS011;3415;51.148;7.014;2023-06-01T06:37:43;22.10;;;11.20;;
6755;SDS011;3415;51.148;7.014;2023-06-01T06:40:10;22.73;;;11.07;;
6755;SDS011;3415;51.148;7.014;2023-06-01T06:42:38;19.10;;;10.67;;
6755;SDS011;3415;51.148;7.014;2023-06-01T06:45:05;16.43;;;9.07;;
6755;SDS011;3415;51.148;7.014;2023-06-01T06:47:33;17.03;;;9.87;;
6755;SDS011;3415;51.148;7.014;2023-06-01T06:50:00;19.40;;;10.57;;
6755;SDS011;3415;51.148;7.014;2023-06-01T06:52:27;18.63;;;10.17;;
6755;SDS011;3415;51.148;7.014;2023-06-01T06:54:56;19.43;;;10.00;;
6755;SDS011;3415;51.148;7.014;2023-06-01T06:57:23;23.17;;;10.40;;
6755;SDS011;3415;51.148;7.014;2023-06-01T06:59:49;20.70;;;9.60;;
6755;SDS011;3415;51.148;7.014;2023-06-01T07:02:16;15.53;;;10.33;;
6755;SDS011;3415;51.148;7.014;2023-06-01T07:04:44;17.53;;;10.30;;
6755;SDS011;3415;51.148;7.014;2023-06-01T07:07:11;17.40;;;9.10;;
6755;SDS011;3415;51.148;7.014;2023-06-01T07:09:37;16.57;;;9.70;;
6755;SDS011;3415;51.148;7.014;2023-06-01T07:12:07;17.37;;;9.37;;
6755;SDS011;3415;51.148;7.014;2023-06-01T07:14:34;15.70;;;9.50;;
6755;SDS011;3415;51.148;7.014;2023-06-01T07:17:01;16.80;;;9.80;;
6755;SDS011;3415;51.148;7.014;2023-06-01T07:19:28;15.73;;;9.50;;
6755;SDS011;3415;51.148;7.014;2023-06-01T07:21:58;23.10;;;11.20;;
6755;SDS011;3415;51.148;7.014;2023-06-01T07:24:25;20.20;;;10.53;;
6755;SDS011;3415;51.148;7.014;2023-06-01T07:26:52;25.60;;;12.73;;
6755;SDS011;3415;51.148;7.014;2023-06-01T07:29:22;24.70;;;12.40;;
6755;SDS011;3415;51.148;7.014;2023-06-01T07:31:49;19.70;;;11.47;;
6755;SDS011;3415;51.148;7.014;2023-06-01T07:34:17;16.37;;;10.87;;
6755;SDS011;3415;51.148;7.014;2023-06-01T07:36:45;20.10;;;11.30;;
6755;SDS011;3415;51.148;7.014;2023-06-01T07:39:12;20.90;;;11.37;;
6755;SDS011;3415;51.148;7.014;2023-06-01T07:41:40;21.53;;;12.10;;
6755;SDS011;3415;51.148;7.014;2023-06-01T07:44:07;21.00;;;11.43;;
6755;SDS011;3415;51.148;7.014;2023-06-01T07:46:35;22.60;;;11.57;;
6755;SDS011;3415;51.148;7.014;2023-06-01T07:49:02;18.07;;;10.70;;
6755;SDS011;3415;51.148;7.014;2023-06-01T07:51:29;19.80;;;10.57;;
6755;SDS011;3415;51.148;7.014;2023-06-01T07:53:56;22.03;;;10.23;;
6755;SDS011;3415;51.148;7.014;2023-06-01T07:56:25;17.47;;;10.63;;
6755;SDS011;3415;51.148;7.014;2023-06-01T07:58:53;18.80;;;11.70;;
6755;SDS011;3415;51.148;7.014;2023-06-01T08:01:20;19.23;;;11.07;;
6755;SDS011;3415;51.148;7.014;2023-06-01T08:03:48;21.10;;;12.30;;
6755;SDS011;3415;51.148;7.014;2023-06-01T08:06:16;21.13;;;11.77;;
6755;SDS011;3415;51.148;7.014;2023-06-01T08:08:43;17.20;;;10.70;;
6755;SDS011;3415;51.148;7.014;2023-06-01T08:11:14;17.03;;;11.23;;
6755;SDS011;3415;51.148;7.014;2023-06-01T08:13:41;25.27;;;12.90;;
6755;SDS011;3415;51.148;7.014;2023-06-01T08:16:10;17.17;;;11.50;;
6755;SDS011;3415;51.148;7.014;2023-06-01T08:18:39;23.00;;;12.50;;
6755;SDS011;3415;51.148;7.014;2023-06-01T08:21:07;19.03;;;12.20;;
6755;SDS011;3415;51.148;7.014;2023-06-01T08:23:34;20.70;;;11.70;;
6755;SDS011;3415;51.148;7.014;2023-06-01T08:26:01;22.93;;;12.97;;
6755;SDS011;3415;51.148;7.014;2023-06-01T08:28:28;20.93;;;12.80;;
6755;SDS011;3415;51.148;7.014;2023-06-01T08:30:58;26.17;;;14.10;;
6755;SDS011;3415;51.148;7.014;2023-06-01T08:33:25;26.03;;;13.60;;
6755;SDS011;3415;51.148;7.014;2023-06-01T08:35:52;29.00;;;14.40;;
6755;SDS011;3415;51.148;7.014;2023-06-01T08:38:20;20.70;;;13.37;;
6755;SDS011;3415;51.148;7.014;2023-06-01T08:40:47;25.67;;;14.07;;
6755;SDS011;3415;51.148;7.014;2023-06-01T08:43:16;23.67;;;13.97;;
6755;SDS011;3415;51.148;7.014;2023-06-01T08:45:45;27.47;;;15.73;;
6755;SDS011;3415;51.148;7.014;2023-06-01T08:48:14;21.63;;;13.03;;
6755;SDS011;3415;51.148;7.014;2023-06-01T08:50:43;22.50;;;14.10;;
6755;SDS011;3415;51.148;7.014;2023-06-01T08:53:13;25.93;;;14.43;;
6755;SDS011;3415;51.148;7.014;2023-06-01T08:55:44;24.00;;;13.13;;
6755;SDS011;3415;51.148;7.014;2023-06-01T08:58:11;28.60;;;13.97;;
6755;SDS011;3415;51.148;7.014;2023-06-01T09:00:39;27.10;;;13.90;;
6755;SDS011;3415;51.148;7.014;2023-06-01T09:03:07;22.53;;;13.20;;
6755;SDS011;3415;51.148;7.014;2023-06-01T09:05:35;24.50;;;12.73;;
6755;SDS011;3415;51.148;7.014;2023-06-01T09:08:02;18.43;;;12.70;;
6755;SDS011;3415;51.148;7.014;2023-06-01T09:10:28;17.07;;;10.83;;
6755;SDS011;3415;51.148;7.014;2023-06-01T09:12:57;16.90;;;9.57;;
6755;SDS011;3415;51.148;7.014;2023-06-01T09:15:25;15.10;;;9.53;;
6755;SDS011;3415;51.148;7.014;2023-06-01T09:17:52;16.10;;;9.03;;
6755;SDS011;3415;51.148;7.014;2023-06-01T09:20:31;14.53;;;8.57;;
6755;SDS011;3415;51.148;7.014;2023-06-01T09:22:58;13.70;;;8.43;;
6755;SDS011;3415;51.148;7.014;2023-06-01T09:25:25;13.27;;;7.87;;
6755;SDS011;3415;51.148;7.014;2023-06-01T09:27:54;12.60;;;8.80;;
6755;SDS011;3415;51.148;7.014;2023-06-01T09:30:23;12.33;;;7.23;;
6755;SDS011;3415;51.148;7.014;2023-06-01T09:32:58;9.77;;;6.80;;
6755;SDS011;3415;51.148;7.014;2023-06-01T09:35:39;13.47;;;7.20;;
6755;SDS011;3415;51.148;7.014;2023-06-01T09:38:07;11.23;;;7.50;;
6755;SDS011;3415;51.148;7.014;2023-06-01T09:40:36;12.13;;;6.80;;
6755;SDS011;3415;51.148;7.014;2023-06-01T09:43:17;11.70;;;7.20;;
6755;SDS011;3415;51.148;7.014;2023-06-01T09:45:47;13.83;;;7.60;;
6755;SDS011;3415;51.148;7.014;2023-06-01T09:48:30;18.80;;;6.83;;
6755;SDS011;3415;51.148;7.014;2023-06-01T09:50:57;13.27;;;7.00;;
6755;SDS011;3415;51.148;7.014;2023-06-01T09:53:24;14.60;;;6.00;;
6755;SDS011;3415;51.148;7.014;2023-06-01T09:55:57;11.80;;;6.70;;
6755;SDS011;3415;51.148;7.014;2023-06-01T09:58:25;14.23;;;8.13;;
6755;SDS011;3415;51.148;7.014;2023-06-01T10:00:53;10.40;;;6.80;;
6755;SDS011;3415;51.148;7.014;2023-06-01T10:03:21;11.30;;;6.70;;
6755;SDS011;3415;51.148;7.014;2023-06-01T10:05:48;12.40;;;6.90;;
6755;SDS011;3415;51.148;7.014;2023-06-01T10:08:17;12.10;;;7.10;;
6755;SDS011;3415;51.148;7.014;2023-06-01T10:10:45;13.57;;;7.47;;
6755;SDS011;3415;51.148;7.014;2023-06-01T10:13:13;10.83;;;7.00;;
6755;SDS011;3415;51.148;7.014;2023-06-01T10:15:40;12.57;;;7.03;;
6755;SDS011;3415;51.148;7.014;2023-06-01T10:18:09;13.13;;;7.50;;
6755;SDS011;3415;51.148;7.014;2023-06-01T10:20:36;13.80;;;7.80;;
6755;SDS011;3415;51.148;7.014;2023-06-01T10:23:04;14.33;;;7.90;;
6755;SDS011;3415;51.148;7.014;2023-06-01T10:25:33;9.83;;;6.30;;
6755;SDS011;3415;51.148;7.014;2023-06-01T10:28:04;9.73;;;6.13;;
6755;SDS011;3415;51.148;7.014;2023-06-01T10:30:33;16.57;;;6.97;;
6755;SDS011;3415;51.148;7.014;2023-06-01T10:33:00;12.33;;;7.00;;
6755;SDS011;3415;51.148;7.014;2023-06-01T10:38:30;12.07;;;6.70;;
6755;SDS011;3415;51.148;7.014;2023-06-01T10:43:54;10.50;;;6.50;;
6755;SDS011;3415;51.148;7.014;2023-06-01T10:46:37;9.70;;;7.00;;
6755;SDS011;3415;51.148;7.014;2023-06-01T10:49:06;10.90;;;6.50;;
6755;SDS011;3415;51.148;7.014;2023-06-01T10:51:34;13.73;;;7.00;;
6755;SDS011;3415;51.148;7.014;2023-06-01T10:57:22;12.00;;;6.77;;
6755;SDS011;3415;51.148;7.014;2023-06-01T11:02:44;9.17;;;5.83;;
6755;SDS011;3415;51.148;7.014;2023-06-01T11:08:03;10.67;;;6.40;;
6755;SDS011;3415;51.148;7.014;2023-06-01T11:13:21;13.93;;;7.20;;
6755;SDS011;3415;51.148;7.014;2023-06-01T11:19:00;10.90;;;6.87;;
6755;SDS011;3415;51.148;7.014;2023-06-01T11:21:28;13.63;;;7.23;;
6755;SDS011;3415;51.148;7.014;2023-06-01T11:24:03;13.40;;;7.30;;
6755;SDS011;3415;51.148;7.014;2023-06-01T11:26:34;11.70;;;6.90;;
6755;SDS011;3415;51.148;7.014;2023-06-01T11:29:04;11.97;;;6.17;;
6755;SDS011;3415;51.148;7.014;2023-06-01T11:31:42;17.33;;;5.93;;
6755;SDS011;3415;51.148;7.014;2023-06-01T11:34:10;9.90;;;5.73;;
6755;SDS011;3415;51.148;7.014;2023-06-01T11:36:42;12.40;;;6.90;;
6755;SDS011;3415;51.148;7.014;2023-06-01T11:39:17;12.40;;;6.70;;
6755;SDS011;3415;51.148;7.014;2023-06-01T11:41:47;14.10;;;6.73;;
6755;SDS011;3415;51.148;7.014;2023-06-01T11:44:14;12.13;;;6.77;;
6755;SDS011;3415;51.148;7.014;2023-06-01T11:46:54;11.23;;;7.50;;
6755;SDS011;3415;51.148;7.014;2023-06-01T11:49:23;13.67;;;8.23;;
6755;SDS011;3415;51.148;7.014;2023-06-01T11:51:51;16.73;;;7.70;;
6755;SDS011;3415;51.148;7.014;2023-06-01T11:54:23;12.53;;;8.30;;
6755;SDS011;3415;51.148;7.014;2023-06-01T11:56:53;14.50;;;9.43;;
6755;SDS011;3415;51.148;7.014;2023-06-01T11:59:21;13.77;;;8.43;;
6755;SDS011;3415;51.148;7.014;2023-06-01T12:01:49;16.13;;;8.40;;
6755;SDS011;3415;51.148;7.014;2023-06-01T12:04:19;17.30;;;9.83;;
6755;SDS011;3415;51.148;7.014;2023-06-01T12:06:47;19.50;;;9.37;;
6755;SDS011;3415;51.148;7.014;2023-06-01T12:09:14;16.90;;;9.50;;
6755;SDS011;3415;51.148;7.014;2023-06-01T12:11:43;16.33;;;9.40;;
6755;SDS011;3415;51.148;7.014;2023-06-01T12:14:12;15.17;;;9.20;;
6755;SDS011;3415;51.148;7.014;2023-06-01T12:16:55;15.00;;;9.77;;
6755;SDS011;3415;51.148;7.014;2023-06-01T12:19:23;17.63;;;9.30;;
6755;SDS011;3415;51.148;7.014;2023-06-01T12:21:51;14.00;;;9.83;;
6755;SDS011;3415;51.148;7.014;2023-06-01T12:24:25;14.60;;;9.73;;
6755;SDS011;3415;51.148;7.014;2023-06-01T12:26:54;19.37;;;11.30;;
6755;SDS011;3415;51.148;7.014;2023-06-01T12:29:34;16.93;;;9.40;;
6755;SDS011;3415;51.148;7.014;2023-06-01T12:32:03;13.60;;;9.40;;
6755;SDS011;3415;51.148;7.014;2023-06-01T12:34:30;19.53;;;10.20;;
6755;SDS011;3415;51.148;7.014;2023-06-01T12:36:57;17.50;;;9.23;;
6755;SDS011;3415;51.148;7.014;2023-06-01T12:39:33;13.57;;;8.40;;
6755;SDS011;3415;51.148;7.014;2023-06-01T12:42:04;17.40;;;8.97;;
6755;SDS011;3415;51.148;7.014;2023-06-01T12:44:32;15.70;;;8.80;;
6755;SDS011;3415;51.148;7.014;2023-06-01T12:46:59;11.40;;;7.73;;
6755;SDS011;3415;51.148;7.014;2023-06-01T12:49:27;17.83;;;9.07;;
6755;SDS011;3415;51.148;7.014;2023-06-01T12:51:54;10.87;;;6.53;;
6755;SDS011;3415;51.148;7.014;2023-06-01T12:54:21;17.40;;;8.90;;
6755;SDS011;3415;51.148;7.014;2023-06-01T12:56:48;12.33;;;7.10;;
6755;SDS011;3415;51.148;7.014;2023-06-01T12:59:16;15.03;;;7.07;;
6755;SDS011;3415;51.148;7.014;2023-06-01T13:01:43;12.50;;;6.77;;
6755;SDS011;3415;51.148;7.014;2023-06-01T13:04:10;10.90;;;7.00;;
6755;SDS011;3415;51.148;7.014;2023-06-01T13:06:37;13.67;;;6.80;;
6755;SDS011;3415;51.148;7.014;2023-06-01T13:09:04;16.70;;;6.83;;
6755;SDS011;3415;51.148;7.014;2023-06-01T13:11:32;15.43;;;7.37;;
6755;SDS011;3415;51.148;7.014;2023-06-01T13:13:59;12.77;;;7.37;;
6755;SDS011;3415;51.148;7.014;2023-06-01T13:16:27;19.70;;;8.30;;
6755;SDS011;3415;51.148;7.014;2023-06-01T13:18:54;16.00;;;7.20;;
6755;SDS011;3415;51.148;7.014;2023-06-01T13:21:21;13.83;;;6.70;;
6755;SDS011;3415;51.148;7.014;2023-06-01T13:23:48;12.53;;;6.67;;
6755;SDS011;3415;51.148;7.014;2023-06-01T13:26:14;14.57;;;8.07;;
6755;SDS011;3415;51.148;7.014;2023-06-01T13:28:42;12.77;;;6.90;;
6755;SDS011;3415;51.148;7.014;2023-06-01T13:31:09;17.83;;;8.23;;
6755;SDS011;3415;51.148;7.014;2023-06-01T13:33:37;20.90;;;7.43;;
6755;SDS011;3415;51.148;7.014;2023-06-01T13:36:04;15.03;;;7.63;;
6755;SDS011;3415;51.148;7.014;2023-06-01T13:38:31;10.63;;;7.27;;
6755;SDS011;3415;51.148;7.014;2023-06-01T13:40:58;12.93;;;6.57;;
6755;SDS011;3415;51.148;7.014;2023-06-01T13:43:25;17.37;;;7.00;;
6755;SDS011;3415;51.148;7.014;2023-06-01T13:45:52;14.57;;;6.50;;
6755;SDS011;3415;51.148;7.014;2023-06-01T13:48:19;14.40;;;6.50;;
6755;SDS011;3415;51.148;7.014;2023-06-01T13:50:47;16.57;;;7.17;;
6755;SDS011;3415;51.148;7.014;2023-06-01T13:53:14;15.67;;;6.80;;
6755;SDS011;3415;51.148;7.014;2023-06-01T13:55:41;17.10;;;6.30;;
6755;SDS011;3415;51.148;7.014;2023-06-01T13:58:07;11.53;;;5.50;;
6755;SDS011;3415;51.148;7.014;2023-06-01T14:00:34;11.20;;;5.57;;
6755;SDS011;3415;51.148;7.014;2023-06-01T14:03:01;9.63;;;5.50;;
6755;SDS011;3415;51.148;7.014;2023-06-01T14:05:28;11.00;;;5.87;;
6755;SDS011;3415;51.148;7.014;2023-06-01T14:07:56;13.20;;;5.00;;
6755;SDS011;3415;51.148;7.014;2023-06-01T14:10:23;11.03;;;5.83;;
6755;SDS011;3415;51.148;7.014;2023-06-01T14:12:50;12.50;;;5.50;;
6755;SDS011;3415;51.148;7.014;2023-06-01T14:15:17;15.10;;;6.17;;
6755;SDS011;3415;51.148;7.014;2023-06-01T14:17:44;10.60;;;5.73;;
6755;SDS011;3415;51.148;7.014;2023-06-01T14:20:10;10.43;;;5.50;;
6755;SDS011;3415;51.148;7.014;2023-06-01T14:22:38;10.60;;;5.77;;
6755;SDS011;3415;51.148;7.014;2023-06-01T14:25:07;8.67;;;5.43;;
6755;SDS011;3415;51.148;7.014;2023-06-01T14:27:34;19.97;;;6.27;;
6755;SDS011;3415;51.148;7.014;2023-06-01T14:30:02;11.67;;;5.03;;
6755;SDS011;3415;51.148;7.014;2023-06-01T14:32:30;9.30;;;5.40;;
6755;SDS011;3415;51.148;7.014;2023-06-01T14:34:57;10.60;;;5.20;;
6755;SDS011;3415;51.148;7.014;2023-06-01T14:37:24;7.37;;;4.63;;
6755;SDS011;3415;51.148;7.014;2023-06-01T14:39:50;12.50;;;6.07;;
6755;SDS011;3415;51.148;7.014;2023-06-01T14:42:18;8.43;;;4.90;;
6755;SDS011;3415;51.148;7.014;2023-06-01T14:44:45;8.80;;;5.17;;
6755;SDS011;3415;51.148;7.014;2023-06-01T14:47:12;7.70;;;4.43;;
6755;SDS011;3415;51.148;7.014;2023-06-01T14:49:39;10.10;;;5.03;;
6755;SDS011;3415;51.148;7.014;2023-06-01T14:52:06;11.30;;;5.50;;
6755;SDS011;3415;51.148;7.014;2023-06-01T14:54:33;8.63;;;5.40;;
6755;SDS011;3415;51.148;7.014;2023-06-01T14:57:00;12.40;;;5.53;;
6755;SDS011;3415;51.148;7.014;2023-06-01T14:59:28;11.97;;;5.30;;
6755;SDS011;3415;51.148;7.014;2023-06-01T15:01:55;9.23;;;5.07;;
6755;SDS011;3415;51.148;7.014;2023-06-01T15:04:22;11.33;;;5.20;;
6755;SDS011;3415;51.148;7.014;2023-06-01T15:06:49;13.83;;;7.13;;
6755;SDS011;3415;51.148;7.014;2023-06-01T15:09:16;10.40;;;5.33;;
6755;SDS011;3415;51.148;7.014;2023-06-01T15:11:43;7.57;;;5.13;;
6755;SDS011;3415;51.148;7.014;2023-06-01T15:14:10;9.63;;;5.50;;
6755;SDS011;3415;51.148;7.014;2023-06-01T15:16:38;8.40;;;6.17;;
6755;SDS011;3415;51.148;7.014;2023-06-01T15:19:05;10.33;;;5.17;;
6755;SDS011;3415;51.148;7.014;2023-06-01T15:21:32;10.03;;;5.47;;
6755;SDS011;3415;51.148;7.014;2023-06-01T15:23:59;12.63;;;6.10;;
6755;SDS011;3415;51.148;7.014;2023-06-01T15:26:26;11.57;;;5.50;;
6755;SDS011;3415;51.148;7.014;2023-06-01T15:28:53;9.57;;;5.00;;
6755;SDS011;3415;51.148;7.014;2023-06-01T15:31:20;12.77;;;5.37;;
6755;SDS011;3415;51.148;7.014;2023-06-01T15:33:49;10.07;;;5.53;;